sensor_id;sensor_type;location;lat;lon;timestamp;temperature;humidity
63371;DHT22;49504;48.336;14.472;2022-08-19T03:09:12;27.20;45.80
63371;DHT22;49504;48.336;14.472;2022-08-19T03:14:13;27.30;46.60
63371;DHT22;49504;48.336;14.472;2022-08-19T03:19:16;27.40;46.20
63371;DHT22;49504;48.336;14.472;2022-08-19T03:24:19;27.40;46.00
63371;DHT22;49504;48.336;14.472;2022-08-19T03:29:20;27.40;45.90
63371;DHT22;49504;48.336;14.472;2022-08-19T03:34:23;27.40;45.80
63371;DHT22;49504;48.336;14.472;2022-08-19T03:39:27;27.40;45.90
63371;DHT22;49504;48.336;14.472;2022-08-19T03:44:29;27.40;46.00
63371;DHT22;49504;48.336;14.472;2022-08-19T03:49:32;27.40;46.00
63371;DHT22;49504;48.336;14.472;2022-08-19T03:54:35;27.30;46.00
63371;DHT22;49504;48.336;14.472;2022-08-19T03:59:37;27.30;46.00
63371;DHT22;49504;48.336;14.472;2022-08-19T04:04:40;27.30;45.90
63371;DHT22;49504;48.336;14.472;2022-08-19T04:09:44;27.30;45.70
63371;DHT22;49504;48.336;14.472;2022-08-19T04:14:45;27.30;45.90
63371;DHT22;49504;48.336;14.472;2022-08-19T04:19:46;27.30;45.70
63371;DHT22;49504;48.336;14.472;2022-08-19T04:24:48;27.30;45.60
63371;DHT22;49504;48.336;14.472;2022-08-19T04:29:49;27.30;45.60
63371;DHT22;49504;48.336;14.472;2022-08-19T04:34:50;27.20;45.00
63371;DHT22;49504;48.336;14.472;2022-08-19T04:39:53;27.30;44.90
63371;DHT22;49504;48.336;14.472;2022-08-19T04:44:54;27.20;44.90
63371;DHT22;49504;48.336;14.472;2022-08-19T04:49:55;27.20;44.90
63371;DHT22;49504;48.336;14.472;2022-08-19T04:55:55;27.20;44.70
63371;DHT22;49504;48.336;14.472;2022-08-19T05:00:57;27.20;45.10
63371;DHT22;49504;48.336;14.472;2022-08-19T05:05:58;27.20;45.10
63371;DHT22;49504;48.336;14.472;2022-08-19T05:11:14;27.10;45.10
63371;DHT22;49504;48.336;14.472;2022-08-19T05:16:17;27.10;45.30
63371;DHT22;49504;48.336;14.472;2022-08-19T05:21:21;27.10;45.60
63371;DHT22;49504;48.336;14.472;2022-08-19T05:26:24;27.10;46.00
63371;DHT22;49504;48.336;14.472;2022-08-19T05:31:25;27.00;46.10
63371;DHT22;49504;48.336;14.472;2022-08-19T05:39:38;27.00;45.70
63371;DHT22;49504;48.336;14.472;2022-08-19T05:48:10;27.00;45.90
63371;DHT22;49504;48.336;14.472;2022-08-19T05:53:12;27.10;47.10
63371;DHT22;49504;48.336;14.472;2022-08-19T05:58:14;27.10;47.30
63371;DHT22;49504;48.336;14.472;2022-08-19T06:03:16;27.10;47.50
63371;DHT22;49504;48.336;14.472;2022-08-19T06:08:22;27.10;47.30
63371;DHT22;49504;48.336;14.472;2022-08-19T06:13:24;27.20;47.30
63371;DHT22;49504;48.336;14.472;2022-08-19T06:18:29;27.20;47.40
63371;DHT22;49504;48.336;14.472;2022-08-19T06:23:32;27.20;47.50
63371;DHT22;49504;48.336;14.472;2022-08-19T06:28:37;27.20;47.70
63371;DHT22;49504;48.336;14.472;2022-08-19T06:33:40;27.30;47.70
63371;DHT22;49504;48.336;14.472;2022-08-19T06:42:29;27.30;47.00
63371;DHT22;49504;48.336;14.472;2022-08-19T06:47:31;27.30;47.80
63371;DHT22;49504;48.336;14.472;2022-08-19T06:52:34;27.30;48.10
63371;DHT22;49504;48.336;14.472;2022-08-19T07:00:38;27.30;47.40
63371;DHT22;49504;48.336;14.472;2022-08-19T07:05:40;27.30;48.60
63371;DHT22;49504;48.336;14.472;2022-08-19T07:10:45;27.30;48.80
63371;DHT22;49504;48.336;14.472;2022-08-19T07:18:12;27.20;48.10
63371;DHT22;49504;48.336;14.472;2022-08-19T07:25:58;27.20;48.40
63371;DHT22;49504;48.336;14.472;2022-08-19T07:32:32;27.20;48.50
63371;DHT22;49504;48.336;14.472;2022-08-19T07:37:33;27.20;49.60
63371;DHT22;49504;48.336;14.472;2022-08-19T07:42:34;27.20;49.80
63371;DHT22;49504;48.336;14.472;2022-08-19T07:47:37;27.20;49.90
63371;DHT22;49504;48.336;14.472;2022-08-19T07:52:38;27.20;49.80
63371;DHT22;49504;48.336;14.472;2022-08-19T07:57:39;27.20;49.80
63371;DHT22;49504;48.336;14.472;2022-08-19T08:02:41;27.20;49.80
63371;DHT22;49504;48.336;14.472;2022-08-19T08:07:52;27.20;49.40
63371;DHT22;49504;48.336;14.472;2022-08-19T08:12:53;27.20;49.90
63371;DHT22;49504;48.336;14.472;2022-08-19T08:17:54;27.20;50.00
63371;DHT22;49504;48.336;14.472;2022-08-19T08:22:56;27.20;50.10
63371;DHT22;49504;48.336;14.472;2022-08-19T08:27:58;27.20;50.00
63371;DHT22;49504;48.336;14.472;2022-08-19T08:32:59;27.20;50.00
63371;DHT22;49504;48.336;14.472;2022-08-19T08:38:03;27.20;50.00
63371;DHT22;49504;48.336;14.472;2022-08-19T08:43:07;27.20;49.70
63371;DHT22;49504;48.336;14.472;2022-08-19T08:52:05;27.20;49.30
63371;DHT22;49504;48.336;14.472;2022-08-19T08:59:57;27.20;49.40
63371;DHT22;49504;48.336;14.472;2022-08-19T09:05:01;27.30;51.40
63371;DHT22;49504;48.336;14.472;2022-08-19T09:10:10;27.30;51.50
63371;DHT22;49504;48.336;14.472;2022-08-19T09:15:24;27.30;52.40
63371;DHT22;49504;48.336;14.472;2022-08-19T09:20:29;27.40;52.60
63371;DHT22;49504;48.336;14.472;2022-08-19T09:25:31;27.40;53.70
63371;DHT22;49504;48.336;14.472;2022-08-19T09:30:38;27.50;53.70
63371;DHT22;49504;48.336;14.472;2022-08-19T09:35:42;27.50;52.90
63371;DHT22;49504;48.336;14.472;2022-08-19T09:46:42;27.50;51.00
63371;DHT22;49504;48.336;14.472;2022-08-19T09:51:46;27.60;51.40
63371;DHT22;49504;48.336;14.472;2022-08-19T09:56:51;27.60;51.20
63371;DHT22;49504;48.336;14.472;2022-08-19T10:01:54;27.60;51.40
63371;DHT22;49504;48.336;14.472;2022-08-19T10:06:55;27.60;51.30
63371;DHT22;49504;48.336;14.472;2022-08-19T10:11:56;27.60;51.10
63371;DHT22;49504;48.336;14.472;2022-08-19T10:16:59;27.60;50.90
63371;DHT22;49504;48.336;14.472;2022-08-19T10:22:03;27.60;51.00
63371;DHT22;49504;48.336;14.472;2022-08-19T10:27:04;27.60;50.80
63371;DHT22;49504;48.336;14.472;2022-08-19T10:32:08;27.60;51.00
63371;DHT22;49504;48.336;14.472;2022-08-19T10:37:09;27.70;50.90
63371;DHT22;49504;48.336;14.472;2022-08-19T10:42:10;27.70;51.00
63371;DHT22;49504;48.336;14.472;2022-08-19T10:47:12;27.70;50.90
63371;DHT22;49504;48.336;14.472;2022-08-19T10:52:13;27.70;51.30
63371;DHT22;49504;48.336;14.472;2022-08-19T10:57:15;27.70;51.40
63371;DHT22;49504;48.336;14.472;2022-08-19T11:04:56;27.70;50.70
63371;DHT22;49504;48.336;14.472;2022-08-19T11:09:57;27.80;51.70
63371;DHT22;49504;48.336;14.472;2022-08-19T11:18:20;27.70;50.60
63371;DHT22;49504;48.336;14.472;2022-08-19T11:23:21;27.80;51.10
63371;DHT22;49504;48.336;14.472;2022-08-19T11:28:22;27.80;51.10
63371;DHT22;49504;48.336;14.472;2022-08-19T11:33:25;27.80;51.10
63371;DHT22;49504;48.336;14.472;2022-08-19T11:38:26;27.80;51.10
63371;DHT22;49504;48.336;14.472;2022-08-19T11:43:28;27.80;50.90
63371;DHT22;49504;48.336;14.472;2022-08-19T11:48:30;27.80;51.00
63371;DHT22;49504;48.336;14.472;2022-08-19T11:53:32;27.80;51.00
63371;DHT22;49504;48.336;14.472;2022-08-19T11:58:34;27.80;51.00
63371;DHT22;49504;48.336;14.472;2022-08-19T12:03:37;27.80;50.80
63371;DHT22;49504;48.336;14.472;2022-08-19T12:08:39;27.80;51.00
63371;DHT22;49504;48.336;14.472;2022-08-19T12:17:53;27.80;50.30
63371;DHT22;49504;48.336;14.472;2022-08-19T12:22:54;27.80;50.90
63371;DHT22;49504;48.336;14.472;2022-08-19T12:27:55;27.80;50.70
63371;DHT22;49504;48.336;14.472;2022-08-19T12:32:58;27.80;50.80
63371;DHT22;49504;48.336;14.472;2022-08-19T12:38:00;27.80;50.80
63371;DHT22;49504;48.336;14.472;2022-08-19T12:44:43;27.80;50.30
63371;DHT22;49504;48.336;14.472;2022-08-19T12:49:44;27.80;50.50
63371;DHT22;49504;48.336;14.472;2022-08-19T12:54:46;27.80;50.30
63371;DHT22;49504;48.336;14.472;2022-08-19T12:59:52;27.80;50.20
63371;DHT22;49504;48.336;14.472;2022-08-19T13:04:54;27.80;50.20
63371;DHT22;49504;48.336;14.472;2022-08-19T13:09:55;27.80;50.10
63371;DHT22;49504;48.336;14.472;2022-08-19T13:14:57;27.90;50.10
63371;DHT22;49504;48.336;14.472;2022-08-19T13:20:22;27.80;49.50
63371;DHT22;49504;48.336;14.472;2022-08-19T13:25:24;27.80;49.90
63371;DHT22;49504;48.336;14.472;2022-08-19T13:30:25;27.80;50.20
63371;DHT22;49504;48.336;14.472;2022-08-19T13:35:28;27.80;50.00
63371;DHT22;49504;48.336;14.472;2022-08-19T13:40:29;27.80;49.80
63371;DHT22;49504;48.336;14.472;2022-08-19T13:45:33;27.80;49.70
63371;DHT22;49504;48.336;14.472;2022-08-19T13:50:39;27.80;49.70
63371;DHT22;49504;48.336;14.472;2022-08-19T13:55:43;27.80;49.80
63371;DHT22;49504;48.336;14.472;2022-08-19T14:00:46;27.90;49.90
63371;DHT22;49504;48.336;14.472;2022-08-19T14:05:49;27.80;49.60
63371;DHT22;49504;48.336;14.472;2022-08-19T14:10:50;27.80;49.60
63371;DHT22;49504;48.336;14.472;2022-08-19T14:15:51;27.80;50.40
63371;DHT22;49504;48.336;14.472;2022-08-19T14:20:54;27.90;50.60
63371;DHT22;49504;48.336;14.472;2022-08-19T14:29:45;27.80;49.70
63371;DHT22;49504;48.336;14.472;2022-08-19T14:34:48;27.90;50.10
63371;DHT22;49504;48.336;14.472;2022-08-19T14:39:49;27.90;50.30
63371;DHT22;49504;48.336;14.472;2022-08-19T14:51:30;27.80;49.80
63371;DHT22;49504;48.336;14.472;2022-08-19T14:56:31;27.90;50.70
63371;DHT22;49504;48.336;14.472;2022-08-19T15:01:32;27.90;50.70
63371;DHT22;49504;48.336;14.472;2022-08-19T15:06:35;27.90;50.30
63371;DHT22;49504;48.336;14.472;2022-08-19T15:11:36;27.90;50.50
63371;DHT22;49504;48.336;14.472;2022-08-19T15:19:03;27.80;49.60
63371;DHT22;49504;48.336;14.472;2022-08-19T15:24:04;27.90;50.70
63371;DHT22;49504;48.336;14.472;2022-08-19T15:29:06;27.90;51.00
63371;DHT22;49504;48.336;14.472;2022-08-19T15:34:08;27.90;50.80
63371;DHT22;49504;48.336;14.472;2022-08-19T15:39:09;27.90;51.40
63371;DHT22;49504;48.336;14.472;2022-08-19T15:44:13;27.90;51.30
63371;DHT22;49504;48.336;14.472;2022-08-19T15:49:17;27.90;51.20
63371;DHT22;49504;48.336;14.472;2022-08-19T15:54:20;27.90;50.10
63371;DHT22;49504;48.336;14.472;2022-08-19T16:05:32;27.90;49.70
63371;DHT22;49504;48.336;14.472;2022-08-19T16:10:33;27.90;49.70
63371;DHT22;49504;48.336;14.472;2022-08-19T16:15:34;27.90;49.50
63371;DHT22;49504;48.336;14.472;2022-08-19T16:25:09;27.90;49.20
63371;DHT22;49504;48.336;14.472;2022-08-19T16:30:10;27.90;49.40
63371;DHT22;49504;48.336;14.472;2022-08-19T16:35:11;27.90;49.30
63371;DHT22;49504;48.336;14.472;2022-08-19T16:40:14;27.90;49.20
63371;DHT22;49504;48.336;14.472;2022-08-19T16:45:15;27.90;49.20
63371;DHT22;49504;48.336;14.472;2022-08-19T16:50:16;27.90;49.20
63371;DHT22;49504;48.336;14.472;2022-08-19T16:57:43;27.80;48.80
63371;DHT22;49504;48.336;14.472;2022-08-19T17:02:45;27.90;49.40
63371;DHT22;49504;48.336;14.472;2022-08-19T17:07:46;27.80;48.80
63371;DHT22;49504;48.336;14.472;2022-08-19T17:12:49;27.90;48.90
63371;DHT22;49504;48.336;14.472;2022-08-19T17:17:53;27.80;48.70
63371;DHT22;49504;48.336;14.472;2022-08-19T17:26:54;27.80;48.30
63371;DHT22;49504;48.336;14.472;2022-08-19T17:31:55;27.80;48.50
63371;DHT22;49504;48.336;14.472;2022-08-19T17:36:56;27.80;48.40
63371;DHT22;49504;48.336;14.472;2022-08-19T17:47:03;27.80;48.30
63371;DHT22;49504;48.336;14.472;2022-08-19T17:54:37;27.80;48.30
63371;DHT22;49504;48.336;14.472;2022-08-19T17:59:38;27.70;48.60
63371;DHT22;49504;48.336;14.472;2022-08-19T18:04:40;27.80;48.90
63371;DHT22;49504;48.336;14.472;2022-08-19T18:09:43;27.80;49.00
63371;DHT22;49504;48.336;14.472;2022-08-19T18:14:44;27.80;49.00
63371;DHT22;49504;48.336;14.472;2022-08-19T18:19:46;27.80;49.00
63371;DHT22;49504;48.336;14.472;2022-08-19T18:24:49;27.70;49.30
63371;DHT22;49504;48.336;14.472;2022-08-19T18:29:50;27.70;49.00
63371;DHT22;49504;48.336;14.472;2022-08-19T18:34:52;27.80;49.00
63371;DHT22;49504;48.336;14.472;2022-08-19T18:39:55;27.70;48.70
63371;DHT22;49504;48.336;14.472;2022-08-19T18:44:56;27.70;48.70
63371;DHT22;49504;48.336;14.472;2022-08-19T18:54:13;27.70;48.30
63371;DHT22;49504;48.336;14.472;2022-08-19T18:59:14;27.70;48.80
63371;DHT22;49504;48.336;14.472;2022-08-19T19:04:16;27.70;48.70
63371;DHT22;49504;48.336;14.472;2022-08-19T19:09:21;27.70;48.70
63371;DHT22;49504;48.336;14.472;2022-08-19T19:14:27;27.70;48.70
63371;DHT22;49504;48.336;14.472;2022-08-19T19:21:46;27.70;48.40
63371;DHT22;49504;48.336;14.472;2022-08-19T19:26:48;27.70;48.70
63371;DHT22;49504;48.336;14.472;2022-08-19T19:31:50;27.70;48.60
63371;DHT22;49504;48.336;14.472;2022-08-19T19:36:53;27.60;48.50
63371;DHT22;49504;48.336;14.472;2022-08-19T19:41:53;27.70;48.60
63371;DHT22;49504;48.336;14.472;2022-08-19T19:46:54;27.60;48.50
63371;DHT22;49504;48.336;14.472;2022-08-19T19:51:57;27.60;48.60
63371;DHT22;49504;48.336;14.472;2022-08-19T19:56:58;27.60;48.50
63371;DHT22;49504;48.336;14.472;2022-08-19T20:02:12;27.60;47.90
63371;DHT22;49504;48.336;14.472;2022-08-19T20:07:13;27.60;48.50
63371;DHT22;49504;48.336;14.472;2022-08-19T20:13:14;27.60;48.00
63371;DHT22;49504;48.336;14.472;2022-08-19T20:20:47;27.60;48.00
63371;DHT22;49504;48.336;14.472;2022-08-19T20:25:49;27.60;48.40
63371;DHT22;49504;48.336;14.472;2022-08-19T20:30:50;27.60;48.40
63371;DHT22;49504;48.336;14.472;2022-08-19T20:35:52;27.60;48.40
63371;DHT22;49504;48.336;14.472;2022-08-19T20:40:53;27.60;48.40
63371;DHT22;49504;48.336;14.472;2022-08-19T20:45:54;27.60;48.60
63371;DHT22;49504;48.336;14.472;2022-08-19T20:50:57;27.60;48.60
63371;DHT22;49504;48.336;14.472;2022-08-19T20:58:33;27.60;48.10
